createdAt,value
2022-08-07T00:00:18.707Z,63.94
2022-08-07T00:01:44.439Z,64.14
2022-08-07T00:02:45.963Z,63.98
2022-08-07T00:03:49.201Z,64.71
2022-08-07T00:04:52.032Z,64.91
2022-08-07T00:05:56.219Z,64.43
2022-08-07T00:07:01.462Z,64.94
2022-08-07T00:08:08.577Z,64.55
2022-08-07T00:09:21.227Z,65.84
2022-08-07T00:10:26.137Z,65.78
2022-08-07T00:11:33.109Z,65.50
2022-08-07T00:12:36.247Z,65.54
2022-08-07T00:13:59.390Z,65.44
2022-08-07T00:15:02.439Z,65.89
2022-08-07T00:16:07.058Z,65.68
2022-08-07T00:17:10.627Z,65.81
2022-08-07T00:18:19.231Z,65.49
2022-08-07T00:19:25.945Z,65.57
2022-08-07T00:20:29.879Z,65.39
2022-08-07T00:21:56.329Z,65.08
2022-08-07T00:23:00.209Z,65.15
2022-08-07T00:24:03.076Z,64.81
2022-08-07T00:25:16.486Z,65.23
2022-08-07T00:26:58.446Z,65.61
2022-08-07T00:27:52.515Z,65.12
2022-08-07T00:29:00.659Z,64.56
2022-08-07T00:30:06.220Z,64.34
2022-08-07T00:31:37.867Z,64.45
2022-08-07T00:32:44.400Z,64.55
2022-08-07T00:33:48.247Z,64.48
2022-08-07T00:34:51.121Z,64.41
2022-08-07T00:35:58.730Z,64.57
2022-08-07T00:37:05.046Z,64.21
2022-08-07T00:38:08.527Z,64.22
2022-08-07T00:39:16.541Z,64.44
2022-08-07T00:40:39.028Z,64.48
2022-08-07T00:41:53.655Z,64.52
2022-08-07T00:43:09.953Z,64.38
2022-08-07T00:44:15.143Z,64.39
2022-08-07T00:45:18.279Z,64.26
2022-08-07T00:46:21.108Z,64.08
2022-08-07T00:48:08.158Z,64.19
2022-08-07T00:48:49.909Z,64.38
2022-08-07T00:50:21.168Z,64.33
2022-08-07T00:51:17.610Z,63.83
2022-08-07T00:52:20.468Z,63.59
2022-08-07T00:53:23.540Z,63.52
2022-08-07T00:54:26.445Z,63.85
2022-08-07T00:56:02.600Z,63.45
2022-08-07T00:56:53.323Z,63.74
2022-08-07T00:57:56.890Z,63.33
2022-08-07T00:59:00.718Z,63.43
2022-08-07T01:00:08.347Z,63.32
2022-08-07T01:01:11.498Z,63.28
2022-08-07T01:02:28.099Z,63.32
2022-08-07T01:03:56.828Z,63.28
2022-08-07T01:04:58.350Z,63.17
2022-08-07T01:06:03.557Z,62.98
2022-08-07T01:07:06.639Z,62.79
2022-08-07T01:08:11.436Z,62.15
2022-08-07T01:10:06.803Z,62.52
2022-08-07T01:10:39.544Z,62.41
2022-08-07T01:12:09.622Z,62.74
2022-08-07T01:13:16.416Z,63.03
2022-08-07T01:14:28.256Z,63.38
2022-08-07T01:16:01.306Z,63.72
2022-08-07T01:16:58.649Z,63.12
2022-08-07T01:18:02.041Z,63.17
2022-08-07T01:19:14.837Z,62.36
2022-08-07T01:20:33.526Z,63.13
2022-08-07T01:21:36.952Z,63.49
2022-08-07T01:22:46.833Z,62.95
2022-08-07T01:24:04.274Z,63.59
2022-08-07T01:25:40.058Z,63.78
2022-08-07T01:26:33.915Z,63.59
2022-08-07T01:27:37.454Z,63.07
2022-08-07T01:28:54.231Z,63.39
2022-08-07T01:29:57.478Z,63.96
2022-08-07T01:31:02.897Z,63.81
2022-08-07T01:32:12.282Z,63.96
2022-08-07T01:33:17.429Z,63.56
2022-08-07T01:34:30.710Z,63.04
2022-08-07T01:35:52.684Z,62.54
2022-08-07T01:36:58.017Z,62.67
2022-08-07T01:38:01.538Z,62.63
2022-08-07T01:39:09.997Z,61.80
2022-08-07T01:40:15.115Z,62.04
2022-08-07T01:41:26.220Z,61.50
2022-08-07T01:42:38.669Z,61.58
2022-08-07T01:43:43.764Z,61.47
2022-08-07T01:44:48.053Z,61.85
2022-08-07T01:45:54.378Z,62.11
2022-08-07T01:47:01.212Z,62.12
2022-08-07T01:48:30.753Z,62.37
2022-08-07T01:49:33.934Z,62.02
2022-08-07T01:50:42.899Z,62.05
2022-08-07T01:52:01.911Z,62.09
2022-08-07T01:53:09.695Z,62.18
2022-08-07T01:54:37.058Z,61.94
2022-08-07T01:55:47.712Z,62.48
2022-08-07T01:56:57.028Z,62.02
2022-08-07T01:58:06.356Z,61.79
2022-08-07T01:59:35.484Z,62.14
2022-08-07T02:00:49.136Z,62.13
2022-08-07T02:02:07.449Z,62.34
2022-08-07T02:03:21.353Z,62.51
2022-08-07T02:04:56.136Z,62.12
2022-08-07T02:06:30.808Z,61.83
2022-08-07T02:07:35.742Z,62.17
2022-08-07T02:08:50.510Z,62.30
2022-08-07T02:09:59.229Z,62.02
2022-08-07T02:11:04.950Z,61.68
2022-08-07T02:12:20.203Z,61.62
2022-08-07T02:13:56.533Z,61.83
2022-08-07T02:14:58.834Z,62.32
2022-08-07T02:16:07.467Z,62.10
2022-08-07T02:17:16.540Z,61.85
2022-08-07T02:18:36.783Z,61.59
2022-08-07T02:20:04.156Z,61.11
2022-08-07T02:21:16.009Z,60.91
2022-08-07T02:22:20.585Z,61.03
2022-08-07T02:23:35.729Z,60.88
2022-08-07T02:24:44.537Z,60.74
2022-08-07T02:26:26.624Z,60.97
2022-08-07T02:27:14.554Z,61.88
2022-08-07T02:28:24.415Z,61.60
2022-08-07T02:29:29.530Z,61.38
2022-08-07T02:30:35.729Z,61.31
2022-08-07T02:31:39.997Z,61.94
2022-08-07T02:33:03.962Z,62.18
2022-08-07T02:34:11.572Z,62.31
2022-08-07T02:36:30.525Z,61.54
2022-08-07T02:36:45.961Z,61.46
2022-08-07T02:37:50.691Z,61.91
2022-08-07T02:38:56.787Z,62.14
2022-08-07T02:40:29.915Z,61.96
2022-08-07T02:41:26.228Z,62.05
2022-08-07T02:42:40.748Z,61.80
2022-08-07T02:43:48.924Z,62.23
2022-08-07T02:44:53.772Z,62.31
2022-08-07T02:46:04.717Z,62.07
2022-08-07T02:47:08.743Z,62.25
2022-08-07T02:48:23.156Z,62.04
2022-08-07T02:49:28.743Z,61.95
2022-08-07T02:50:53.141Z,61.78
2022-08-07T02:51:59.200Z,62.18
2022-08-07T02:53:07.257Z,62.49
2022-08-07T02:54:15.527Z,62.69
2022-08-07T02:56:03.291Z,62.32
2022-08-07T02:56:56.569Z,61.91
2022-08-07T02:58:06.774Z,61.90
2022-08-07T02:59:18.589Z,62.04
2022-08-07T03:00:30.198Z,62.23
2022-08-07T03:01:35.947Z,61.96
2022-08-07T03:02:54.963Z,62.13
2022-08-07T03:03:58.835Z,62.26
2022-08-07T03:05:06.972Z,61.85
2022-08-07T03:06:16.423Z,61.99
2022-08-07T03:08:05.239Z,61.81
2022-08-07T03:08:54.643Z,62.23
2022-08-07T03:09:57.351Z,61.99
2022-08-07T03:11:00.450Z,62.18
2022-08-07T03:12:08.097Z,62.31
2022-08-07T03:13:24.703Z,62.29
2022-08-07T03:14:29.901Z,62.43
2022-08-07T03:15:56.775Z,62.45
2022-08-07T03:16:57.309Z,62.65
2022-08-07T03:18:01.108Z,62.07
2022-08-07T03:19:04.940Z,62.70
2022-08-07T03:20:08.463Z,62.80
2022-08-07T03:21:12.126Z,62.38
2022-08-07T03:22:24.321Z,62.38
2022-08-07T03:24:18.302Z,62.80
2022-08-07T03:24:57.412Z,62.59
2022-08-07T03:26:02.121Z,62.54
2022-08-07T03:27:09.094Z,62.60
2022-08-07T03:28:37.546Z,62.92
2022-08-07T03:29:49.582Z,63.49
2022-08-07T03:31:14.576Z,63.73
2022-08-07T03:32:21.541Z,64.13
2022-08-07T03:33:32.263Z,63.88
2022-08-07T03:34:47.206Z,63.84
2022-08-07T03:36:03.925Z,63.52
2022-08-07T03:37:27.501Z,63.83
2022-08-07T03:38:33.159Z,63.46
2022-08-07T03:39:59.922Z,63.40
2022-08-07T03:41:05.727Z,63.27
2022-08-07T03:42:14.557Z,63.69
2022-08-07T03:43:17.404Z,63.52
2022-08-07T03:44:21.797Z,63.70
2022-08-07T03:45:39.814Z,63.33
2022-08-07T03:47:14.242Z,63.03
2022-08-07T03:48:11.602Z,63.49
2022-08-07T03:49:14.633Z,63.52
2022-08-07T03:50:23.028Z,63.23
2022-08-07T03:51:30.689Z,63.26
2022-08-07T03:52:35.515Z,63.05
2022-08-07T03:54:05.666Z,62.90
2022-08-07T03:55:06.503Z,62.84
2022-08-07T03:56:13.725Z,63.29
2022-08-07T03:58:33.099Z,63.47
2022-08-07T03:59:09.242Z,63.14
2022-08-07T04:00:05.056Z,63.74
2022-08-07T04:01:14.475Z,63.57
2022-08-07T04:02:17.428Z,63.94
2022-08-07T04:03:22.128Z,63.38
2022-08-07T04:04:25.212Z,63.44
2022-08-07T04:05:40.375Z,63.87
2022-08-07T04:06:44.497Z,63.70
2022-08-07T04:07:47.960Z,63.08
2022-08-07T04:08:52.606Z,63.21
2022-08-07T04:09:55.703Z,63.21
2022-08-07T04:12:23.561Z,63.24
2022-08-07T04:12:27.614Z,63.41
2022-08-07T04:14:33.172Z,63.17
2022-08-07T04:14:59.399Z,62.91
2022-08-07T04:16:04.802Z,63.12
2022-08-07T04:17:19.993Z,63.31
2022-08-07T04:18:59.891Z,63.25
2022-08-07T04:19:52.939Z,63.26
2022-08-07T04:20:57.790Z,62.25
2022-08-07T04:22:07.859Z,62.31
2022-08-07T04:23:19.522Z,62.35
2022-08-07T04:24:30.505Z,62.47
2022-08-07T04:25:44.643Z,63.46
2022-08-07T04:26:50.859Z,66.07
2022-08-07T04:28:00.401Z,67.58
2022-08-07T04:29:04.270Z,67.14
2022-08-07T04:30:11.869Z,67.57
2022-08-07T04:31:38.667Z,69.32
2022-08-07T04:32:48.433Z,70.57
2022-08-07T04:34:02.058Z,71.60
2022-08-07T04:35:07.049Z,72.17
2022-08-07T04:36:10.266Z,73.20
2022-08-07T04:37:15.375Z,73.50
2022-08-07T04:38:25.727Z,74.51
2022-08-07T04:39:35.834Z,75.07
2022-08-07T04:40:51.307Z,75.50
2022-08-07T04:41:54.415Z,74.63
2022-08-07T04:43:01.607Z,74.14
2022-08-07T04:44:12.865Z,74.47
2022-08-07T04:45:57.173Z,74.53
2022-08-07T04:47:04.742Z,76.24
2022-08-07T04:48:18.670Z,76.96
2022-08-07T04:49:24.649Z,75.98
2022-08-07T04:50:56.934Z,76.71
2022-08-07T04:52:36.010Z,76.67
2022-08-07T04:54:15.310Z,75.83
2022-08-07T04:58:15.667Z,76.14
2022-08-07T04:58:24.504Z,77.89
2022-08-07T04:59:17.218Z,77.74
2022-08-07T05:00:31.717Z,76.65
2022-08-07T05:01:50.605Z,76.12
2022-08-07T05:04:00.114Z,76.07
2022-08-07T05:05:53.291Z,77.02
2022-08-07T05:06:51.664Z,76.03
2022-08-07T05:08:59.570Z,76.69
2022-08-07T05:10:01.025Z,72.17
2022-08-07T05:11:19.331Z,71.39
2022-08-07T05:12:58.585Z,71.84
2022-08-07T05:14:54.549Z,70.97
2022-08-07T05:15:44.151Z,70.89
2022-08-07T05:16:52.690Z,70.60
2022-08-07T05:18:00.525Z,69.19
2022-08-07T05:19:12.601Z,70.16
2022-08-07T05:20:18.970Z,70.20
2022-08-07T05:21:58.970Z,69.74
2022-08-07T05:22:51.730Z,68.51
2022-08-07T05:24:00.422Z,68.12
2022-08-07T05:25:03.292Z,67.07
2022-08-07T05:26:23.762Z,66.67
2022-08-07T05:28:02.574Z,66.73
2022-08-07T05:28:56.423Z,67.10
2022-08-07T05:30:00.738Z,66.62
2022-08-07T05:31:04.795Z,66.26
2022-08-07T05:32:08.805Z,65.93
2022-08-07T05:33:15.392Z,65.87
2022-08-07T05:34:26.411Z,65.70
2022-08-07T05:35:42.248Z,64.74
2022-08-07T05:36:49.326Z,63.67
2022-08-07T05:38:08.893Z,63.77
2022-08-07T05:40:05.547Z,63.33
2022-08-07T05:40:50.610Z,63.21
2022-08-07T05:42:01.664Z,63.26
2022-08-07T05:43:10.628Z,63.65
2022-08-07T05:44:17.830Z,63.57
2022-08-07T05:45:46.477Z,63.52
2022-08-07T05:46:51.587Z,61.39
2022-08-07T05:48:02.441Z,60.63
2022-08-07T05:49:12.207Z,61.34
2022-08-07T05:50:16.727Z,60.72
2022-08-07T05:51:20.871Z,60.50
2022-08-07T05:52:29.857Z,60.30
2022-08-07T05:54:12.565Z,60.36
2022-08-07T05:54:58.768Z,59.90
2022-08-07T05:56:12.502Z,60.77
2022-08-07T05:57:17.110Z,60.30
2022-08-07T05:58:35.924Z,60.04
2022-08-07T05:59:57.881Z,59.97
2022-08-07T06:01:05.012Z,59.56
2022-08-07T06:02:15.331Z,59.89
2022-08-07T06:03:24.220Z,59.66
2022-08-07T06:04:30.310Z,59.58
2022-08-07T06:05:34.693Z,60.12
2022-08-07T06:06:38.305Z,59.63
2022-08-07T06:08:13.790Z,58.57
2022-08-07T06:09:17.027Z,58.84
2022-08-07T06:10:20.450Z,59.75
2022-08-07T06:11:23.570Z,59.65
2022-08-07T06:12:27.968Z,59.10
2022-08-07T06:14:11.676Z,59.39
2022-08-07T06:15:05.295Z,59.22
2022-08-07T06:16:10.169Z,58.82
2022-08-07T06:17:17.443Z,59.43
2022-08-07T06:18:21.708Z,58.78
2022-08-07T06:19:48.014Z,58.77
2022-08-07T06:20:50.773Z,59.00
2022-08-07T06:22:22.792Z,59.58
2022-08-07T06:24:38.269Z,58.04
2022-08-07T06:24:58.200Z,58.51
2022-08-07T06:26:05.161Z,59.06
2022-08-07T06:27:10.061Z,58.02
2022-08-07T06:28:14.082Z,57.30
2022-08-07T06:29:17.677Z,57.54
2022-08-07T06:30:32.120Z,57.07
2022-08-07T06:31:49.817Z,56.77
2022-08-07T06:32:53.319Z,56.09
2022-08-07T06:33:56.151Z,56.78
2022-08-07T06:35:01.036Z,56.98
2022-08-07T06:36:11.940Z,57.83
2022-08-07T06:37:17.009Z,58.49
2022-08-07T06:38:20.863Z,56.34
2022-08-07T06:40:16.591Z,55.67
2022-08-07T06:40:54.566Z,55.84
2022-08-07T06:42:05.210Z,56.10
2022-08-07T06:43:21.002Z,56.27
2022-08-07T06:44:33.888Z,55.75
2022-08-07T06:45:38.051Z,55.84
2022-08-07T06:46:41.242Z,55.42
2022-08-07T06:47:56.985Z,55.80
2022-08-07T06:49:04.486Z,55.22
2022-08-07T06:50:08.297Z,55.44
2022-08-07T06:51:31.334Z,54.31
2022-08-07T06:52:38.996Z,55.18
2022-08-07T06:55:29.403Z,56.22
2022-08-07T06:55:53.353Z,55.72
2022-08-07T06:56:56.428Z,55.11
2022-08-07T06:58:09.537Z,54.96
2022-08-07T07:00:13.861Z,53.79
2022-08-07T07:00:45.700Z,53.72
2022-08-07T07:01:50.818Z,54.64
2022-08-07T07:03:00.845Z,55.19
2022-08-07T07:04:28.546Z,54.44
2022-08-07T07:06:02.598Z,54.61
2022-08-07T07:07:00.374Z,53.26
2022-08-07T07:08:06.659Z,53.22
2022-08-07T07:09:36.397Z,52.74
2022-08-07T07:10:39.156Z,53.85
2022-08-07T07:12:16.692Z,52.83
2022-08-07T07:13:56.031Z,52.05
2022-08-07T07:15:23.980Z,53.09
2022-08-07T07:16:39.080Z,52.35
2022-08-07T07:18:09.462Z,52.00
2022-08-07T07:19:57.032Z,52.10
2022-08-07T07:20:45.595Z,51.84
2022-08-07T07:22:05.111Z,51.69
2022-08-07T07:24:09.211Z,51.42
2022-08-07T07:24:38.620Z,52.80
2022-08-07T07:26:33.836Z,50.76
2022-08-07T07:27:15.766Z,52.36
2022-08-07T07:28:42.249Z,52.00
2022-08-07T07:30:09.316Z,53.92
2022-08-07T07:31:44.672Z,52.89
2022-08-07T07:32:50.853Z,52.71
2022-08-07T07:33:57.908Z,52.47
2022-08-07T07:35:03.867Z,52.62
2022-08-07T07:36:13.564Z,53.32
2022-08-07T07:37:45.520Z,52.09
2022-08-07T07:38:46.225Z,51.40
2022-08-07T07:39:55.527Z,51.34
2022-08-07T07:41:02.638Z,52.16
2022-08-07T07:42:13.723Z,51.59
2022-08-07T07:43:27.735Z,50.80
2022-08-07T07:44:49.676Z,51.76
2022-08-07T07:46:36.560Z,50.95
2022-08-07T07:47:51.779Z,49.66
2022-08-07T07:48:45.628Z,49.48
2022-08-07T07:50:34.582Z,49.35
2022-08-07T07:51:15.539Z,48.68
2022-08-07T07:52:24.319Z,48.45
2022-08-07T07:53:28.927Z,48.02
2022-08-07T07:54:37.899Z,47.89
2022-08-07T07:55:45.582Z,48.33
2022-08-07T07:56:59.977Z,48.34
2022-08-07T07:58:06.131Z,47.65
2022-08-07T07:59:12.439Z,48.10
2022-08-07T08:00:29.869Z,47.65
2022-08-07T08:02:02.666Z,47.03
2022-08-07T08:03:16.528Z,47.51
2022-08-07T08:04:25.528Z,46.08
2022-08-07T08:05:42.759Z,46.36
2022-08-07T08:06:53.513Z,46.05
2022-08-07T08:08:00.675Z,47.02
2022-08-07T08:09:08.229Z,45.86
2022-08-07T08:10:35.753Z,46.21
2022-08-07T08:11:59.677Z,46.67
2022-08-07T08:13:03.075Z,47.29
2022-08-07T08:14:05.966Z,46.96
2022-08-07T08:15:09.969Z,46.48
2022-08-07T08:16:24.987Z,45.96
2022-08-07T08:18:17.665Z,46.18
2022-08-07T08:18:55.940Z,45.25
2022-08-07T08:20:19.385Z,46.22
2022-08-07T08:21:55.399Z,45.67
2022-08-07T08:23:28.130Z,45.16
2022-08-07T08:25:18.744Z,45.14
2022-08-07T08:26:43.490Z,45.26
2022-08-07T08:28:01.866Z,45.74
2022-08-07T08:29:08.474Z,45.74
2022-08-07T08:30:17.532Z,45.82
2022-08-07T08:31:59.345Z,44.95
2022-08-07T08:32:54.574Z,44.49
2022-08-07T08:34:01.924Z,45.40
2022-08-07T08:35:09.928Z,45.12
2022-08-07T08:36:13.657Z,45.85
2022-08-07T08:38:01.362Z,45.16
2022-08-07T08:38:49.761Z,45.15
2022-08-07T08:39:58.665Z,44.63
2022-08-07T08:41:11.898Z,44.06
2022-08-07T08:42:37.222Z,43.77
2022-08-07T08:43:59.500Z,43.72
2022-08-07T08:45:41.494Z,43.68
2022-08-07T08:47:03.138Z,43.38
2022-08-07T08:48:32.520Z,43.00
2022-08-07T08:49:46.462Z,44.03
2022-08-07T08:51:14.532Z,43.11
2022-08-07T08:52:53.688Z,43.50
2022-08-07T08:54:19.244Z,42.88
2022-08-07T08:55:53.902Z,42.16
2022-08-07T08:57:07.443Z,42.27
2022-08-07T08:58:28.575Z,41.39
2022-08-07T09:00:00.081Z,41.25
2022-08-07T09:01:19.429Z,40.74
2022-08-07T09:02:43.892Z,40.26
2022-08-07T09:04:16.667Z,40.09
2022-08-07T09:05:52.954Z,39.38
2022-08-07T09:07:23.172Z,38.83
2022-08-07T09:08:48.071Z,37.71
2022-08-07T09:10:36.411Z,38.59
2022-08-07T09:11:53.350Z,36.97
2022-08-07T09:13:37.565Z,36.03
2022-08-07T09:16:22.086Z,36.54
2022-08-07T09:16:57.775Z,35.61
2022-08-07T09:18:22.689Z,35.84
2022-08-07T09:19:53.337Z,35.15
2022-08-07T09:21:34.185Z,36.22
2022-08-07T09:24:32.668Z,36.38
2022-08-07T09:24:33.365Z,36.03
2022-08-07T09:25:56.573Z,35.30
2022-08-07T09:27:13.368Z,34.49
2022-08-07T09:30:05.360Z,34.21
2022-08-07T09:30:08.693Z,33.63
2022-08-07T09:31:48.676Z,33.29
2022-08-07T09:33:05.247Z,33.23
2022-08-07T09:34:27.223Z,33.08
2022-08-07T09:36:05.385Z,33.01
2022-08-07T09:37:48.482Z,32.69
2022-08-07T09:39:52.474Z,33.69
2022-08-07T09:41:06.879Z,33.79
2022-08-07T09:42:39.282Z,34.97
2022-08-07T09:44:05.853Z,32.39
2022-08-07T09:47:25.942Z,34.63
2022-08-07T09:47:51.179Z,34.85
2022-08-07T09:50:02.196Z,34.34
2022-08-07T09:50:39.870Z,36.09
2022-08-07T09:52:33.868Z,36.15
2022-08-07T09:53:55.167Z,35.93
2022-08-07T09:55:17.066Z,36.02
2022-08-07T09:57:05.454Z,38.00
2022-08-07T09:58:32.256Z,38.62
2022-08-07T10:00:03.908Z,36.49
2022-08-07T10:01:50.418Z,36.95
2022-08-07T10:04:06.621Z,37.79
2022-08-07T10:04:39.542Z,38.32
2022-08-07T10:06:38.126Z,39.20
2022-08-07T10:07:54.979Z,37.72
2022-08-07T10:09:15.353Z,37.47
2022-08-07T10:11:07.610Z,36.71
2022-08-07T10:12:39.836Z,37.03
2022-08-07T10:14:03.929Z,36.24
2022-08-07T10:15:20.095Z,36.72
2022-08-07T10:16:59.523Z,35.75
2022-08-07T10:18:41.056Z,35.59
2022-08-07T10:19:55.708Z,32.93
2022-08-07T10:21:50.549Z,32.62
2022-08-07T10:22:57.414Z,31.74
2022-08-07T10:24:25.342Z,33.28
2022-08-07T10:25:44.702Z,33.49
2022-08-07T10:27:24.635Z,34.35
2022-08-07T10:28:51.746Z,33.57
2022-08-07T10:29:58.878Z,32.42
2022-08-07T10:31:38.830Z,32.39
2022-08-07T10:33:14.898Z,32.19
2022-08-07T10:34:31.750Z,33.57
2022-08-07T10:36:05.563Z,32.28
2022-08-07T10:38:20.983Z,32.22
2022-08-07T10:40:02.908Z,32.90
2022-08-07T10:41:46.915Z,32.25
2022-08-07T10:43:04.596Z,32.71
2022-08-07T10:44:45.502Z,32.10
2022-08-07T10:45:57.314Z,32.17
2022-08-07T10:47:11.751Z,32.50
2022-08-07T10:48:41.780Z,32.88
2022-08-07T10:50:19.446Z,32.61
2022-08-07T10:52:01.545Z,31.28
2022-08-07T10:53:28.661Z,30.82
2022-08-07T10:55:26.845Z,30.34
2022-08-07T10:56:43.572Z,29.48
2022-08-07T10:58:12.333Z,29.27
2022-08-07T10:59:37.025Z,29.72
2022-08-07T11:01:35.624Z,29.52
2022-08-07T11:03:04.205Z,29.59
2022-08-07T11:04:31.880Z,30.53
2022-08-07T11:05:51.006Z,32.77
2022-08-07T11:07:03.232Z,32.64
2022-08-07T11:08:21.251Z,33.43
2022-08-07T11:10:09.593Z,34.22
2022-08-07T11:11:08.184Z,33.64
2022-08-07T11:12:31.273Z,33.65
2022-08-07T11:14:45.969Z,33.96
2022-08-07T11:15:18.153Z,34.19
2022-08-07T11:16:30.547Z,33.80
2022-08-07T11:17:45.825Z,33.74
2022-08-07T11:18:51.212Z,34.14
2022-08-07T11:20:07.541Z,34.62
2022-08-07T11:21:33.600Z,33.98
2022-08-07T11:23:04.506Z,34.79
2022-08-07T11:24:22.783Z,34.36
2022-08-07T11:25:50.000Z,34.80
2022-08-07T11:27:02.199Z,33.32
2022-08-07T11:28:15.294Z,33.24
2022-08-07T11:29:42.152Z,33.41
2022-08-07T11:31:02.268Z,32.91
2022-08-07T11:32:15.358Z,33.00
2022-08-07T11:33:59.267Z,32.44
2022-08-07T11:35:10.214Z,30.82
2022-08-07T11:36:36.063Z,30.66
2022-08-07T11:38:10.149Z,29.35
2022-08-07T11:39:39.776Z,30.04
2022-08-07T11:41:18.181Z,29.40
2022-08-07T11:42:51.066Z,29.50
2022-08-07T11:44:18.743Z,30.87
2022-08-07T11:45:58.956Z,30.00
2022-08-07T11:47:39.139Z,30.13
2022-08-07T11:49:50.090Z,29.77
2022-08-07T11:51:04.013Z,29.66
2022-08-07T11:52:37.785Z,29.48
2022-08-07T11:54:01.096Z,30.38
2022-08-07T11:56:19.809Z,29.94
2022-08-07T11:57:16.086Z,30.28
2022-08-07T11:58:43.646Z,29.94
2022-08-07T12:00:19.281Z,29.54
2022-08-07T12:01:58.708Z,29.78
2022-08-07T12:03:42.313Z,28.82
2022-08-07T12:05:15.225Z,30.17
2022-08-07T12:06:57.218Z,30.28
2022-08-07T12:08:25.924Z,31.37
2022-08-07T12:09:39.719Z,30.55
2022-08-07T12:11:20.500Z,30.57
2022-08-07T12:12:35.905Z,29.43
2022-08-07T12:13:47.566Z,28.82
2022-08-07T12:15:17.297Z,28.59
2022-08-07T12:16:38.101Z,29.13
2022-08-07T12:17:58.822Z,28.92
2022-08-07T12:19:21.439Z,28.55
2022-08-07T12:20:38.200Z,28.01
2022-08-07T12:22:39.179Z,27.09
2022-08-07T12:24:06.828Z,26.91
2022-08-07T12:26:21.430Z,27.31
2022-08-07T12:27:28.137Z,27.84
2022-08-07T12:29:01.967Z,28.08
2022-08-07T12:30:09.095Z,26.98
2022-08-07T12:32:02.054Z,27.92
2022-08-07T12:33:28.234Z,26.80
2022-08-07T12:34:37.110Z,28.07
2022-08-07T12:35:41.427Z,27.37
2022-08-07T12:36:53.637Z,27.61
2022-08-07T12:38:09.467Z,28.19
2022-08-07T12:39:43.217Z,27.19
2022-08-07T12:40:50.382Z,28.71
2022-08-07T12:41:54.805Z,28.78
2022-08-07T12:43:00.039Z,29.02
2022-08-07T12:44:10.418Z,28.75
2022-08-07T12:45:27.047Z,28.50
2022-08-07T12:46:46.271Z,28.65
2022-08-07T12:48:27.943Z,29.21
2022-08-07T12:50:05.226Z,29.07
2022-08-07T12:51:51.037Z,31.37
2022-08-07T12:53:21.928Z,30.39
2022-08-07T12:55:09.739Z,30.59
2022-08-07T12:56:33.681Z,31.21
2022-08-07T12:58:01.119Z,31.18
2022-08-07T12:59:08.356Z,30.78
2022-08-07T13:00:16.356Z,31.26
2022-08-07T13:01:55.862Z,31.77
2022-08-07T13:04:02.623Z,31.46
2022-08-07T13:06:04.665Z,32.16
2022-08-07T13:07:01.026Z,31.52
2022-08-07T13:08:28.119Z,32.77
2022-08-07T13:10:28.600Z,32.21
2022-08-07T13:12:02.268Z,31.54
2022-08-07T13:13:13.402Z,31.03
2022-08-07T13:15:14.334Z,31.91
2022-08-07T13:17:01.249Z,32.93
2022-08-07T13:18:29.996Z,31.59
2022-08-07T13:19:59.690Z,31.24
2022-08-07T13:21:57.394Z,31.75
2022-08-07T13:24:04.070Z,32.60
2022-08-07T13:25:06.885Z,33.24
2022-08-07T13:26:30.588Z,32.53
2022-08-07T13:28:12.686Z,31.94
2022-08-07T13:29:17.126Z,31.18
2022-08-07T13:30:40.966Z,31.97
2022-08-07T13:31:57.895Z,32.11
2022-08-07T13:34:31.225Z,32.20
2022-08-07T13:34:58.485Z,31.63
2022-08-07T13:36:08.613Z,31.75
2022-08-07T13:37:58.799Z,32.69
2022-08-07T13:39:13.120Z,30.63
2022-08-07T13:40:42.831Z,30.33
2022-08-07T13:41:51.414Z,30.33
2022-08-07T13:43:12.353Z,30.03
2022-08-07T13:44:25.950Z,28.09
2022-08-07T13:46:12.830Z,27.89
2022-08-07T13:46:59.655Z,27.54
2022-08-07T13:48:08.691Z,27.66
2022-08-07T13:50:32.719Z,28.18
2022-08-07T13:50:45.052Z,27.14
2022-08-07T13:52:22.878Z,26.88
2022-08-07T13:53:35.935Z,27.59
2022-08-07T13:54:57.597Z,27.50
2022-08-07T13:56:00.720Z,27.62
2022-08-07T13:57:14.690Z,27.24
2022-08-07T13:58:54.207Z,27.65
2022-08-07T14:00:02.493Z,28.96
2022-08-07T14:01:15.790Z,29.14
2022-08-07T14:02:39.547Z,29.78
2022-08-07T14:04:06.857Z,30.34
2022-08-07T14:05:15.684Z,29.42
2022-08-07T14:06:19.734Z,29.90
2022-08-07T14:07:33.575Z,29.90
2022-08-07T14:08:45.471Z,28.38
2022-08-07T14:10:12.340Z,29.16
2022-08-07T14:11:24.030Z,28.83
2022-08-07T14:12:55.813Z,27.69
2022-08-07T14:14:07.740Z,27.97
2022-08-07T14:15:36.165Z,29.13
2022-08-07T14:16:49.866Z,28.87
2022-08-07T14:18:23.766Z,29.04
2022-08-07T14:20:40.898Z,29.54
2022-08-07T14:21:08.301Z,29.52
2022-08-07T14:22:34.070Z,29.90
2022-08-07T14:24:01.131Z,29.91
2022-08-07T14:25:16.705Z,30.29
2022-08-07T14:26:30.115Z,29.86
2022-08-07T14:28:11.079Z,30.20
2022-08-07T14:30:09.527Z,30.43
2022-08-07T14:30:34.160Z,31.01
2022-08-07T14:31:42.843Z,32.29
2022-08-07T14:32:58.685Z,31.86
2022-08-07T14:34:03.205Z,31.64
2022-08-07T14:35:16.419Z,31.24
2022-08-07T14:36:41.051Z,31.94
2022-08-07T14:38:05.821Z,31.89
2022-08-07T14:39:12.545Z,31.32
2022-08-07T14:40:35.733Z,30.05
2022-08-07T14:42:19.985Z,31.06
2022-08-07T14:43:55.340Z,31.09
2022-08-07T14:44:53.048Z,30.82
2022-08-07T14:45:58.736Z,30.76
2022-08-07T14:47:08.733Z,30.59
2022-08-07T14:48:27.262Z,29.74
2022-08-07T14:49:57.114Z,29.50
2022-08-07T14:51:00.130Z,30.67
2022-08-07T14:52:10.312Z,29.92
2022-08-07T14:53:14.353Z,29.52
2022-08-07T14:54:34.503Z,30.21
2022-08-07T14:55:55.916Z,30.56
2022-08-07T14:57:02.154Z,31.17
2022-08-07T14:58:06.596Z,30.47
2022-08-07T15:00:55.627Z,29.72
2022-08-07T15:02:31.787Z,29.84
2022-08-07T15:03:51.579Z,29.99
2022-08-07T15:05:01.807Z,30.34
2022-08-07T15:06:05.377Z,29.57
2022-08-07T15:07:23.992Z,29.64
2022-08-07T15:08:54.762Z,29.40
2022-08-07T15:10:02.028Z,30.01
2022-08-07T15:11:14.994Z,30.05
2022-08-07T15:12:30.563Z,30.34
2022-08-07T15:13:38.149Z,30.03
2022-08-07T15:14:57.789Z,30.07
2022-08-07T15:16:10.917Z,30.16
2022-08-07T15:17:18.248Z,30.66
2022-08-07T15:18:33.755Z,30.75
2022-08-07T15:20:30.587Z,30.89
2022-08-07T15:21:59.617Z,30.27
2022-08-07T15:23:16.959Z,29.85
2022-08-07T15:25:13.162Z,29.48
2022-08-07T15:25:57.040Z,30.25
2022-08-07T15:27:05.734Z,29.74
2022-08-07T15:28:35.239Z,29.82
2022-08-07T15:30:09.323Z,30.16
2022-08-07T15:31:10.790Z,29.89
2022-08-07T15:32:15.628Z,30.28
2022-08-07T15:33:42.694Z,29.34
2022-08-07T15:34:56.950Z,29.69
2022-08-07T15:36:05.063Z,30.01
2022-08-07T15:37:10.085Z,30.10
2022-08-07T15:38:30.342Z,30.46
2022-08-07T15:39:58.298Z,29.67
2022-08-07T15:41:23.771Z,29.69
2022-08-07T15:44:04.983Z,29.96
2022-08-07T15:45:20.150Z,30.29
2022-08-07T15:48:02.045Z,31.17
2022-08-07T15:49:14.415Z,30.70
2022-08-07T15:51:01.638Z,30.54
2022-08-07T15:53:09.236Z,30.51
2022-08-07T15:54:17.337Z,31.05
2022-08-07T15:55:20.991Z,31.52
2022-08-07T15:56:37.146Z,31.14
2022-08-07T15:57:51.523Z,31.24
2022-08-07T15:58:59.338Z,32.92
2022-08-07T16:00:07.152Z,32.56
2022-08-07T16:01:20.600Z,32.17
2022-08-07T16:02:28.120Z,31.86
2022-08-07T16:03:47.468Z,31.66
2022-08-07T16:05:04.564Z,31.66
2022-08-07T16:06:30.686Z,31.81
2022-08-07T16:08:31.423Z,32.84
2022-08-07T16:09:22.757Z,32.96
2022-08-07T16:10:28.294Z,33.19
2022-08-07T16:11:55.290Z,33.37
2022-08-07T16:13:57.838Z,32.70
2022-08-07T16:14:54.897Z,32.36
2022-08-07T16:16:47.947Z,32.61
2022-08-07T16:18:49.823Z,33.26
2022-08-07T16:20:33.318Z,32.83
2022-08-07T16:22:05.837Z,34.26
2022-08-07T16:23:53.518Z,33.22
2022-08-07T16:25:03.135Z,33.29
2022-08-07T16:26:31.273Z,33.23
2022-08-07T16:27:41.929Z,34.04
2022-08-07T16:30:07.140Z,33.83
2022-08-07T16:30:34.757Z,33.81
2022-08-07T16:31:58.157Z,33.35
2022-08-07T16:34:01.436Z,34.99
2022-08-07T16:34:48.806Z,35.35
2022-08-07T16:36:19.697Z,34.24
2022-08-07T16:38:07.480Z,33.97
2022-08-07T16:39:40.255Z,33.88
2022-08-07T16:41:10.147Z,34.00
2022-08-07T16:42:38.843Z,33.86
2022-08-07T16:44:04.285Z,33.56
2022-08-07T16:47:16.568Z,34.48
2022-08-07T16:49:04.389Z,34.93
2022-08-07T16:51:21.877Z,34.54
2022-08-07T16:52:51.553Z,34.24
2022-08-07T16:54:03.134Z,34.15
2022-08-07T16:55:13.230Z,35.30
2022-08-07T16:56:39.259Z,35.35
2022-08-07T16:58:15.828Z,34.93
2022-08-07T16:59:48.962Z,34.90